Ana Sayfa
METAR-TAF:

METAR-TAF

Havaalanları :

Mount Vernon Airport

Mount Vernon, Illinois, Amerika Birleşik Devletleri

Enlem: 38-19N, Boylam: 088-52W, yükseklik: 146 m

Güncel hava durumu gözlemi

Rapor saat 11:09 UTC de 1 saat ve 5 dakika önce yapıldı.
Sakin rüzgar
Sıcaklık 21°C
Nem 83%
Basınç 1015 hPa
Görüş mesafesi: 16.1 km
200 ft yükseklikte az bulutlu

METAR: KMVN 161109Z AUTO 00000KT 10SM FEW002 21/18 A2997 RMK AO2 PNO $

Saat: 07:14 (12:14 UTC)

Tahmin

Rapor saat 11:20 UTC de 54 dakika önce yapıldı.
Ayın 16'si saat 12 UTC'den ayın 17'si saat 12 UTC'ye kadar geçerli Tahmin
Rüzgar değişken yönden 3 kt
Görüş mesafesi: 10 km
Açık gökyüzü
Ayın 16'si saat 1500 UTC'den
Rüzgar güney/güneybatıdan 8 kt
Görüş mesafesi: 10 km
5000 ft yükseklikte az bulutlu
Ayın 17'si saat 0200 UTC'den
Rüzgar güneydan 5 kt
Görüş mesafesi: 10 km
25000 ft yükseklikte az bulutlu

TAF: KMVN 161120Z 1612/1712 VRB03KT P6SM SKC FM161500 20008KT P6SM FEW050 FM170200 18005KT P6SM FEW250

4.000'den fazla havaalanı için hava durumu gözlemleri ve tahminleri (METAR ve TAF raporları).

Kullanılabilir istasyonlar harita üzerinde sarı ve kırmızı noktalarla gösterilir.

İstasyonun adını görmek için fareyi noktanın üzerinde gezdirin.

Sonrasında hava gözlem ve tahminlerini görmek için tıklayın.

Haritayı değiştirmek için: yaklaştırmak için siyah artı işaretli yeşil düğmeye ve uzaklaştırmak için de eksi işaretli düğmeye hızla tıklayın; bitişik haritalar için yeşil okları kullanın.


METAR-TAF: